sensor_id;sensor_type;location;lat;lon;timestamp;pressure;altitude;pressure_sealevel;temperature;humidity
58955;BME280;45815;52.334;5.024;2022-08-03T00:00:59;101506.75;;;20.74;100.00
58955;BME280;45815;52.334;5.024;2022-08-03T00:03:25;101510.28;;;20.76;100.00
58955;BME280;45815;52.334;5.024;2022-08-03T00:05:50;101507.63;;;20.74;100.00
58955;BME280;45815;52.334;5.024;2022-08-03T00:08:16;101507.63;;;20.74;100.00
58955;BME280;45815;52.334;5.024;2022-08-03T00:10:41;101510.34;;;20.71;100.00
58955;BME280;45815;52.334;5.024;2022-08-03T00:13:06;101504.13;;;20.69;100.00
58955;BME280;45815;52.334;5.024;2022-08-03T00:15:32;101504.16;;;20.68;100.00
58955;BME280;45815;52.334;5.024;2022-08-03T00:17:57;101514.81;;;20.69;100.00
58955;BME280;45815;52.334;5.024;2022-08-03T00:20:23;101507.66;;;20.71;100.00
58955;BME280;45815;52.334;5.024;2022-08-03T00:22:49;101506.81;;;20.69;100.00
58955;BME280;45815;52.334;5.024;2022-08-03T00:25:16;101509.47;;;20.69;100.00
58955;BME280;45815;52.334;5.024;2022-08-03T00:27:41;101498.03;;;20.61;100.00
58955;BME280;45815;52.334;5.024;2022-08-03T00:30:07;101507.72;;;20.66;100.00
58955;BME280;45815;52.334;5.024;2022-08-03T00:32:32;101513.13;;;20.62;100.00
58955;BME280;45815;52.334;5.024;2022-08-03T00:34:58;101515.81;;;20.59;100.00
58955;BME280;45815;52.334;5.024;2022-08-03T00:37:23;101514.97;;;20.57;100.00
58955;BME280;45815;52.334;5.024;2022-08-03T00:39:48;101513.22;;;20.56;100.00
58955;BME280;45815;52.334;5.024;2022-08-03T00:42:14;101515.91;;;20.50;100.00
58955;BME280;45815;52.334;5.024;2022-08-03T00:44:41;101508.81;;;20.49;100.00
58955;BME280;45815;52.334;5.024;2022-08-03T00:47:07;101506.16;;;20.45;100.00
58955;BME280;45815;52.334;5.024;2022-08-03T00:49:35;101495.59;;;20.36;100.00
58955;BME280;45815;52.334;5.024;2022-08-03T00:52:01;101486.81;;;20.28;100.00
58955;BME280;45815;52.334;5.024;2022-08-03T00:54:26;101497.44;;;20.31;100.00
58955;BME280;45815;52.334;5.024;2022-08-03T00:56:52;101500.09;;;20.33;100.00
58955;BME280;45815;52.334;5.024;2022-08-03T00:59:18;101491.28;;;20.24;100.00
58955;BME280;45815;52.334;5.024;2022-08-03T01:01:43;101486.94;;;20.16;100.00
58955;BME280;45815;52.334;5.024;2022-08-03T01:04:08;101493.09;;;20.21;100.00
58955;BME280;45815;52.334;5.024;2022-08-03T01:07:21;101492.38;;;20.03;100.00
58955;BME280;45815;52.334;5.024;2022-08-03T01:10:12;101483.50;;;20.05;100.00
58955;BME280;45815;52.334;5.024;2022-08-03T01:12:50;101488.88;;;20.00;100.00
58955;BME280;45815;52.334;5.024;2022-08-03T01:15:24;101463.16;;;19.94;100.00
58955;BME280;45815;52.334;5.024;2022-08-03T01:18:05;101487.03;;;20.03;100.00
58955;BME280;45815;52.334;5.024;2022-08-03T01:20:34;101485.28;;;20.02;100.00
58955;BME280;45815;52.334;5.024;2022-08-03T01:23:26;101484.50;;;19.91;100.00
58955;BME280;45815;52.334;5.024;2022-08-03T01:29:18;101481.88;;;19.88;100.00
58955;BME280;45815;52.334;5.024;2022-08-03T01:31:55;101471.22;;;19.88;100.00
58955;BME280;45815;52.334;5.024;2022-08-03T01:34:25;101464.19;;;19.81;100.00
58955;BME280;45815;52.334;5.024;2022-08-03T01:36:55;101476.59;;;19.82;100.00
58955;BME280;45815;52.334;5.024;2022-08-03T01:39:24;101482.00;;;19.73;100.00
58955;BME280;45815;52.334;5.024;2022-08-03T01:41:53;101481.13;;;19.74;100.00
58955;BME280;45815;52.334;5.024;2022-08-03T01:44:25;101482.88;;;19.75;100.00
58955;BME280;45815;52.334;5.024;2022-08-03T01:46:52;101483.78;;;19.71;100.00
58955;BME280;45815;52.334;5.024;2022-08-03T01:49:18;101482.97;;;19.61;100.00
58955;BME280;45815;52.334;5.024;2022-08-03T01:51:46;101477.63;;;19.63;100.00
58955;BME280;45815;52.334;5.024;2022-08-03T01:54:13;101483.88;;;19.60;100.00
58955;BME280;45815;52.334;5.024;2022-08-03T01:56:39;101489.16;;;19.61;100.00
58955;BME280;45815;52.334;5.024;2022-08-03T01:59:08;101482.13;;;19.57;100.00
58955;BME280;45815;52.334;5.024;2022-08-03T02:01:35;101480.38;;;19.53;100.00
58955;BME280;45815;52.334;5.024;2022-08-03T02:04:01;101475.06;;;19.47;100.00
58955;BME280;45815;52.334;5.024;2022-08-03T02:06:29;101483.03;;;19.52;100.00
58955;BME280;45815;52.334;5.024;2022-08-03T02:08:58;101488.41;;;19.43;100.00
58955;BME280;45815;52.334;5.024;2022-08-03T02:11:25;101481.34;;;19.38;100.00
58955;BME280;45815;52.334;5.024;2022-08-03T02:13:51;101471.59;;;19.36;100.00
58955;BME280;45815;52.334;5.024;2022-08-03T02:16:18;101483.13;;;19.39;100.00
58955;BME280;45815;52.334;5.024;2022-08-03T02:18:45;101470.72;;;19.35;100.00
58955;BME280;45815;52.334;5.024;2022-08-03T02:21:12;101469.88;;;19.32;100.00
58955;BME280;45815;52.334;5.024;2022-08-03T02:23:39;101477.88;;;19.30;100.00
58955;BME280;45815;52.334;5.024;2022-08-03T02:26:08;101470.78;;;19.26;100.00
58955;BME280;45815;52.334;5.024;2022-08-03T02:28:39;101480.56;;;19.24;100.00
58955;BME280;45815;52.334;5.024;2022-08-03T02:31:10;101478.81;;;19.25;100.00
58955;BME280;45815;52.334;5.024;2022-08-03T02:33:40;101449.56;;;19.20;100.00
58955;BME280;45815;52.334;5.024;2022-08-03T02:36:07;101454.84;;;19.22;100.00
58955;BME280;45815;52.334;5.024;2022-08-03T02:38:38;101465.47;;;19.26;100.00
58955;BME280;45815;52.334;5.024;2022-08-03T02:41:13;101457.50;;;19.25;100.00
58955;BME280;45815;52.334;5.024;2022-08-03T02:43:40;101460.13;;;19.26;100.00
58955;BME280;45815;52.334;5.024;2022-08-03T02:46:08;101466.38;;;19.24;100.00
58955;BME280;45815;52.334;5.024;2022-08-03T02:48:35;101456.66;;;19.18;100.00
58955;BME280;45815;52.334;5.024;2022-08-03T02:51:02;101460.19;;;19.18;100.00
58955;BME280;45815;52.334;5.024;2022-08-03T02:53:29;101460.19;;;19.18;100.00
58955;BME280;45815;52.334;5.024;2022-08-03T02:55:56;101456.63;;;19.19;100.00
58955;BME280;45815;52.334;5.024;2022-08-03T02:58:23;101465.53;;;19.20;100.00
58955;BME280;45815;52.334;5.024;2022-08-03T03:00:50;101465.56;;;19.14;100.00
58955;BME280;45815;52.334;5.024;2022-08-03T03:03:17;101457.56;;;19.12;100.00
58955;BME280;45815;52.334;5.024;2022-08-03T03:05:43;101464.69;;;19.13;100.00
58955;BME280;45815;52.334;5.024;2022-08-03T03:08:14;101465.56;;;19.14;100.00
58955;BME280;45815;52.334;5.024;2022-08-03T03:10:40;101451.44;;;19.03;100.00
58955;BME280;45815;52.334;5.024;2022-08-03T03:13:07;101462.88;;;19.12;100.00
58955;BME280;45815;52.334;5.024;2022-08-03T03:15:34;101471.78;;;19.11;100.00
58955;BME280;45815;52.334;5.024;2022-08-03T03:18:01;101456.75;;;19.03;100.00
58955;BME280;45815;52.334;5.024;2022-08-03T03:20:28;101473.59;;;19.05;100.00
58955;BME280;45815;52.334;5.024;2022-08-03T03:22:54;101467.38;;;19.04;100.00
58955;BME280;45815;52.334;5.024;2022-08-03T03:25:20;101459.44;;;19.01;100.00
58955;BME280;45815;52.334;5.024;2022-08-03T03:27:47;101460.31;;;19.02;100.00
58955;BME280;45815;52.334;5.024;2022-08-03T03:30:13;101415.22;;;18.79;100.00
58955;BME280;45815;52.334;5.024;2022-08-03T03:32:39;101453.22;;;19.01;100.00
58955;BME280;45815;52.334;5.024;2022-08-03T03:35:05;101447.91;;;18.97;100.00
58955;BME280;45815;52.334;5.024;2022-08-03T03:37:31;101468.31;;;18.94;100.00
58955;BME280;45815;52.334;5.024;2022-08-03T03:39:57;101459.47;;;18.96;100.00
58955;BME280;45815;52.334;5.024;2022-08-03T03:42:24;101466.53;;;18.99;100.00
58955;BME280;45815;52.334;5.024;2022-08-03T03:44:49;101467.41;;;18.98;100.00
58955;BME280;45815;52.334;5.024;2022-08-03T03:47:14;101466.53;;;18.96;100.00
58955;BME280;45815;52.334;5.024;2022-08-03T03:49:40;101471.88;;;18.99;100.00
58955;BME280;45815;52.334;5.024;2022-08-03T03:52:07;101467.44;;;18.93;100.00
58955;BME280;45815;52.334;5.024;2022-08-03T03:54:40;101473.66;;;18.91;100.00
58955;BME280;45815;52.334;5.024;2022-08-03T03:57:05;101471.84;;;18.96;100.00
58955;BME280;45815;52.334;5.024;2022-08-03T03:59:31;101481.59;;;18.98;100.00
58955;BME280;45815;52.334;5.024;2022-08-03T04:01:57;101474.50;;;18.96;100.00
58955;BME280;45815;52.334;5.024;2022-08-03T04:04:23;101470.97;;;18.97;100.00
58955;BME280;45815;52.334;5.024;2022-08-03T04:07:06;101471.88;;;18.99;100.00
58955;BME280;45815;52.334;5.024;2022-08-03T04:09:51;101473.63;;;19.00;100.00
58955;BME280;45815;52.334;5.024;2022-08-03T04:12:37;101473.63;;;19.00;100.00
58955;BME280;45815;52.334;5.024;2022-08-03T04:15:05;101459.41;;;19.03;100.00
58955;BME280;45815;52.334;5.024;2022-08-03T04:17:31;101465.59;;;19.03;100.00
58955;BME280;45815;52.334;5.024;2022-08-03T04:19:57;101475.41;;;19.01;100.00
58955;BME280;45815;52.334;5.024;2022-08-03T04:22:28;101470.94;;;18.98;100.00
58955;BME280;45815;52.334;5.024;2022-08-03T04:25:03;101481.63;;;18.95;100.00
58955;BME280;45815;52.334;5.024;2022-08-03T04:27:36;101478.94;;;19.00;100.00
58955;BME280;45815;52.334;5.024;2022-08-03T04:30:04;101482.47;;;19.04;100.00
58955;BME280;45815;52.334;5.024;2022-08-03T04:32:31;101476.22;;;19.09;100.00
58955;BME280;45815;52.334;5.024;2022-08-03T04:34:56;101481.53;;;19.12;100.00
58955;BME280;45815;52.334;5.024;2022-08-03T04:37:37;101486.88;;;19.09;100.00
58955;BME280;45815;52.334;5.024;2022-08-03T04:40:07;101483.28;;;19.16;100.00
58955;BME280;45815;52.334;5.024;2022-08-03T04:42:33;101489.44;;;19.25;100.00
58955;BME280;45815;52.334;5.024;2022-08-03T04:45:01;101492.97;;;19.27;100.00
58955;BME280;45815;52.334;5.024;2022-08-03T04:47:29;101485.84;;;19.29;100.00
58955;BME280;45815;52.334;5.024;2022-08-03T04:49:56;101486.75;;;19.29;100.00
58955;BME280;45815;52.334;5.024;2022-08-03T04:52:21;101488.50;;;19.29;100.00
58955;BME280;45815;52.334;5.024;2022-08-03T04:54:47;101492.97;;;19.30;100.00
58955;BME280;45815;52.334;5.024;2022-08-03T04:57:13;101498.28;;;19.30;100.00
58955;BME280;45815;52.334;5.024;2022-08-03T04:59:39;101492.97;;;19.30;100.00
58955;BME280;45815;52.334;5.024;2022-08-03T05:02:04;101504.47;;;19.29;100.00
58955;BME280;45815;52.334;5.024;2022-08-03T05:04:31;101498.25;;;19.33;100.00
58955;BME280;45815;52.334;5.024;2022-08-03T05:06:56;101500.03;;;19.34;100.00
58955;BME280;45815;52.334;5.024;2022-08-03T05:09:21;101504.44;;;19.36;100.00
58955;BME280;45815;52.334;5.024;2022-08-03T05:11:47;101507.09;;;19.41;100.00
58955;BME280;45815;52.334;5.024;2022-08-03T05:14:12;101506.22;;;19.39;100.00
58955;BME280;45815;52.334;5.024;2022-08-03T05:16:38;101503.53;;;19.39;100.00
58955;BME280;45815;52.334;5.024;2022-08-03T05:19:03;101503.53;;;19.39;100.00
58955;BME280;45815;52.334;5.024;2022-08-03T05:21:28;101502.66;;;19.35;100.00
58955;BME280;45815;52.334;5.024;2022-08-03T05:23:54;101506.22;;;19.36;100.00
58955;BME280;45815;52.334;5.024;2022-08-03T05:26:19;101508.00;;;19.35;100.00
58955;BME280;45815;52.334;5.024;2022-08-03T05:28:44;101501.78;;;19.36;100.00
58955;BME280;45815;52.334;5.024;2022-08-03T05:31:10;101515.88;;;19.49;100.00
58955;BME280;45815;52.334;5.024;2022-08-03T05:33:36;101501.66;;;19.53;100.00
58955;BME280;45815;52.334;5.024;2022-08-03T05:36:01;101510.53;;;19.55;100.00
58955;BME280;45815;52.334;5.024;2022-08-03T05:38:27;101511.38;;;19.60;100.00
58955;BME280;45815;52.334;5.024;2022-08-03T05:40:52;101505.09;;;19.68;100.00
58955;BME280;45815;52.334;5.024;2022-08-03T05:43:17;101505.09;;;19.74;100.00
58955;BME280;45815;52.334;5.024;2022-08-03T05:45:43;101506.81;;;19.81;100.00
58955;BME280;45815;52.334;5.024;2022-08-03T05:48:08;101499.69;;;19.83;100.00
58955;BME280;45815;52.334;5.024;2022-08-03T05:50:33;101492.50;;;19.91;100.00
58955;BME280;45815;52.334;5.024;2022-08-03T05:53:00;101499.56;;;19.95;100.00
58955;BME280;45815;52.334;5.024;2022-08-03T05:55:26;101502.19;;;20.00;100.00
58955;BME280;45815;52.334;5.024;2022-08-03T05:57:51;101498.63;;;20.02;100.00
58955;BME280;45815;52.334;5.024;2022-08-03T06:00:17;101497.69;;;20.03;100.00
58955;BME280;45815;52.334;5.024;2022-08-03T06:02:42;101503.84;;;20.12;100.00
58955;BME280;45815;52.334;5.024;2022-08-03T06:05:08;101501.16;;;20.15;100.00
58955;BME280;45815;52.334;5.024;2022-08-03T06:07:34;101493.13;;;20.18;100.00
58955;BME280;45815;52.334;5.024;2022-08-03T06:09:59;101500.22;;;20.17;100.00
58955;BME280;45815;52.334;5.024;2022-08-03T06:12:28;101498.41;;;20.22;100.00
58955;BME280;45815;52.334;5.024;2022-08-03T06:14:55;101497.56;;;20.19;100.00
58955;BME280;45815;52.334;5.024;2022-08-03T06:17:20;101495.69;;;20.27;100.00
58955;BME280;45815;52.334;5.024;2022-08-03T06:19:46;101497.47;;;20.25;100.00
58955;BME280;45815;52.334;5.024;2022-08-03T06:22:11;101500.09;;;20.31;100.00
58955;BME280;45815;52.334;5.024;2022-08-03T06:24:36;101492.91;;;20.39;100.00
58955;BME280;45815;52.334;5.024;2022-08-03T06:27:02;101492.97;;;20.35;100.00
58955;BME280;45815;52.334;5.024;2022-08-03T06:29:27;101496.44;;;20.40;100.00
58955;BME280;45815;52.334;5.024;2022-08-03T06:31:52;101493.75;;;20.44;100.00
58955;BME280;45815;52.334;5.024;2022-08-03T06:34:18;101498.06;;;20.55;100.00
58955;BME280;45815;52.334;5.024;2022-08-03T06:36:43;101490.94;;;20.57;100.00
58955;BME280;45815;52.334;5.024;2022-08-03T06:39:09;101499.94;;;20.47;100.00
58955;BME280;45815;52.334;5.024;2022-08-03T06:41:34;101500.72;;;20.55;100.00
58955;BME280;45815;52.334;5.024;2022-08-03T06:44:00;101501.59;;;20.55;100.00
58955;BME280;45815;52.334;5.024;2022-08-03T06:46:26;101499.72;;;20.66;100.00
58955;BME280;45815;52.334;5.024;2022-08-03T06:48:51;101503.25;;;20.69;100.00
58955;BME280;45815;52.334;5.024;2022-08-03T06:51:17;101483.75;;;20.65;100.00
58955;BME280;45815;52.334;5.024;2022-08-03T06:53:42;101498.72;;;20.75;100.00
58955;BME280;45815;52.334;5.024;2022-08-03T06:56:07;101488.09;;;20.72;100.00
58955;BME280;45815;52.334;5.024;2022-08-03T06:58:33;101499.44;;;20.88;100.00
58955;BME280;45815;52.334;5.024;2022-08-03T07:00:59;101499.38;;;20.96;100.00
58955;BME280;45815;52.334;5.024;2022-08-03T07:03:25;101491.38;;;20.93;100.00
58955;BME280;45815;52.334;5.024;2022-08-03T07:05:51;101504.53;;;21.06;100.00
58955;BME280;45815;52.334;5.024;2022-08-03T07:08:17;101514.34;;;21.06;100.00
58955;BME280;45815;52.334;5.024;2022-08-03T07:10:43;101503.59;;;21.12;100.00
58955;BME280;45815;52.334;5.024;2022-08-03T07:13:09;101506.31;;;21.07;100.00
58955;BME280;45815;52.334;5.024;2022-08-03T07:15:34;101504.34;;;21.22;100.00
58955;BME280;45815;52.334;5.024;2022-08-03T07:18:00;101489.09;;;21.28;100.00
58955;BME280;45815;52.334;5.024;2022-08-03T07:20:25;101506.69;;;21.45;100.00
58955;BME280;45815;52.334;5.024;2022-08-03T07:22:51;101505.88;;;21.38;100.00
58955;BME280;45815;52.334;5.024;2022-08-03T07:25:16;101510.34;;;21.38;100.00
58955;BME280;45815;52.334;5.024;2022-08-03T07:27:43;101527.22;;;21.40;100.00
58955;BME280;45815;52.334;5.024;2022-08-03T07:30:08;101520.91;;;21.47;100.00
58955;BME280;45815;52.334;5.024;2022-08-03T07:32:34;101528.00;;;21.48;100.00
58955;BME280;45815;52.334;5.024;2022-08-03T07:35:00;101524.34;;;21.54;100.00
58955;BME280;45815;52.334;5.024;2022-08-03T07:37:25;101523.34;;;21.61;100.00
58955;BME280;45815;52.334;5.024;2022-08-03T07:39:51;101525.94;;;21.65;100.00
58955;BME280;45815;52.334;5.024;2022-08-03T07:42:16;101530.31;;;21.71;100.00
58955;BME280;45815;52.334;5.024;2022-08-03T07:44:41;101528.50;;;21.73;100.00
58955;BME280;45815;52.334;5.024;2022-08-03T07:47:07;101523.91;;;21.81;100.00
58955;BME280;45815;52.334;5.024;2022-08-03T07:49:32;101532.78;;;21.85;100.00
58955;BME280;45815;52.334;5.024;2022-08-03T07:51:58;101542.38;;;21.95;100.00
58955;BME280;45815;52.334;5.024;2022-08-03T07:54:42;101543.19;;;22.00;100.00
58955;BME280;45815;52.334;5.024;2022-08-03T07:57:08;101543.94;;;22.08;100.00
58955;BME280;45815;52.334;5.024;2022-08-03T07:59:33;101532.19;;;22.17;100.00
58955;BME280;45815;52.334;5.024;2022-08-03T08:01:59;101535.56;;;22.31;100.00
58955;BME280;45815;52.334;5.024;2022-08-03T08:04:25;101535.47;;;22.36;100.00
58955;BME280;45815;52.334;5.024;2022-08-03T08:06:50;101532.75;;;22.38;100.00
58955;BME280;45815;52.334;5.024;2022-08-03T08:09:15;101522.91;;;22.38;100.00
58955;BME280;45815;52.334;5.024;2022-08-03T08:11:41;101531.59;;;22.52;100.00
58955;BME280;45815;52.334;5.024;2022-08-03T08:14:06;101528.69;;;22.63;100.00
58955;BME280;45815;52.334;5.024;2022-08-03T08:16:32;101530.31;;;22.70;100.00
58955;BME280;45815;52.334;5.024;2022-08-03T08:18:57;101515.69;;;22.87;100.00
58955;BME280;45815;52.334;5.024;2022-08-03T08:21:23;101512.63;;;23.07;100.00
58955;BME280;45815;52.334;5.024;2022-08-03T08:23:48;101516.78;;;23.20;100.00
58955;BME280;45815;52.334;5.024;2022-08-03T08:26:14;101525.31;;;23.37;100.00
58955;BME280;45815;52.334;5.024;2022-08-03T08:28:39;101517.97;;;23.46;100.00
58955;BME280;45815;52.334;5.024;2022-08-03T08:31:05;101521.44;;;23.51;100.00
58955;BME280;45815;52.334;5.024;2022-08-03T08:33:30;101523.22;;;23.50;100.00
58955;BME280;45815;52.334;5.024;2022-08-03T08:35:56;101519.47;;;23.57;100.00
58955;BME280;45815;52.334;5.024;2022-08-03T08:38:22;101511.22;;;23.67;100.00
58955;BME280;45815;52.334;5.024;2022-08-03T08:40:48;101519.69;;;23.86;100.00
58955;BME280;45815;52.334;5.024;2022-08-03T08:43:14;101521.25;;;23.96;100.00
58955;BME280;45815;52.334;5.024;2022-08-03T08:45:40;101506.00;;;23.98;100.00
58955;BME280;45815;52.334;5.024;2022-08-03T08:48:06;101511.06;;;24.09;100.00
58955;BME280;45815;52.334;5.024;2022-08-03T08:50:32;101517.75;;;24.27;100.00
58955;BME280;45815;52.334;5.024;2022-08-03T08:53:00;101522.13;;;24.31;100.00
58955;BME280;45815;52.334;5.024;2022-08-03T08:55:28;101509.13;;;24.48;100.00
58955;BME280;45815;52.334;5.024;2022-08-03T08:58:01;101514.09;;;24.63;100.00
58955;BME280;45815;52.334;5.024;2022-08-03T09:00:29;101508.78;;;24.92;100.00
58955;BME280;45815;52.334;5.024;2022-08-03T09:02:55;101514.25;;;25.17;100.00
58955;BME280;45815;52.334;5.024;2022-08-03T09:05:21;101506.69;;;25.31;100.00
58955;BME280;45815;52.334;5.024;2022-08-03T09:07:47;101507.03;;;25.48;100.00
58955;BME280;45815;52.334;5.024;2022-08-03T09:10:15;101508.56;;;25.56;100.00
58955;BME280;45815;52.334;5.024;2022-08-03T09:12:48;101510.47;;;25.80;100.00
58955;BME280;45815;52.334;5.024;2022-08-03T09:15:28;101509.97;;;25.96;100.00
58955;BME280;45815;52.334;5.024;2022-08-03T09:18:01;101512.16;;;26.09;100.00
58955;BME280;45815;52.334;5.024;2022-08-03T09:20:30;101509.13;;;26.20;100.00
58955;BME280;45815;52.334;5.024;2022-08-03T09:23:04;101510.81;;;26.23;100.00
58955;BME280;45815;52.334;5.024;2022-08-03T09:25:40;101514.34;;;26.25;100.00
58955;BME280;45815;52.334;5.024;2022-08-03T09:28:11;101514.47;;;26.45;100.00
58955;BME280;45815;52.334;5.024;2022-08-03T09:30:40;101512.44;;;26.52;100.00
58955;BME280;45815;52.334;5.024;2022-08-03T09:33:11;101520.81;;;26.69;100.00
58955;BME280;45815;52.334;5.024;2022-08-03T09:35:41;101505.88;;;26.84;100.00
58955;BME280;45815;52.334;5.024;2022-08-03T09:38:19;101503.84;;;27.13;100.00
58955;BME280;45815;52.334;5.024;2022-08-03T09:40:48;101503.91;;;27.35;100.00
58955;BME280;45815;52.334;5.024;2022-08-03T09:43:14;101496.56;;;27.39;100.00
58955;BME280;45815;52.334;5.024;2022-08-03T09:45:41;101499.22;;;27.40;100.00
58955;BME280;45815;52.334;5.024;2022-08-03T09:48:22;101505.41;;;27.64;100.00
58955;BME280;45815;52.334;5.024;2022-08-03T09:50:53;101504.63;;;27.83;100.00
58955;BME280;45815;52.334;5.024;2022-08-03T09:53:19;101509.34;;;28.20;100.00
58955;BME280;45815;52.334;5.024;2022-08-03T09:56:01;101506.31;;;28.48;100.00
58955;BME280;45815;52.334;5.024;2022-08-03T09:58:28;101504.06;;;28.37;100.00
58955;BME280;45815;52.334;5.024;2022-08-03T10:03:21;101512.25;;;29.51;100.00
58955;BME280;45815;52.334;5.024;2022-08-03T10:05:47;101505.56;;;29.41;100.00
58955;BME280;45815;52.334;5.024;2022-08-03T10:08:14;101509.16;;;29.78;100.00
58955;BME280;45815;52.334;5.024;2022-08-03T10:10:42;101509.56;;;30.05;100.00
58955;BME280;45815;52.334;5.024;2022-08-03T10:13:10;101509.47;;;29.89;100.00
58955;BME280;45815;52.334;5.024;2022-08-03T10:15:37;101507.88;;;30.20;100.00
58955;BME280;45815;52.334;5.024;2022-08-03T10:18:03;101506.13;;;30.54;100.00
58955;BME280;45815;52.334;5.024;2022-08-03T10:20:29;101503.06;;;30.93;100.00
58955;BME280;45815;52.334;5.024;2022-08-03T10:22:56;101491.97;;;31.29;100.00
58955;BME280;45815;52.334;5.024;2022-08-03T10:25:23;101504.09;;;31.70;100.00
58955;BME280;45815;52.334;5.024;2022-08-03T10:27:50;101502.91;;;31.90;100.00
58955;BME280;45815;52.334;5.024;2022-08-03T10:30:17;101503.16;;;31.55;100.00
58955;BME280;45815;52.334;5.024;2022-08-03T10:32:47;101493.63;;;31.48;100.00
58955;BME280;45815;52.334;5.024;2022-08-03T10:35:18;101496.38;;;31.78;100.00
58955;BME280;45815;52.334;5.024;2022-08-03T10:37:51;101493.09;;;31.57;100.00
58955;BME280;45815;52.334;5.024;2022-08-03T10:40:21;101489.34;;;31.90;100.00
58955;BME280;45815;52.334;5.024;2022-08-03T10:42:48;101502.34;;;32.29;100.00
58955;BME280;45815;52.334;5.024;2022-08-03T10:45:22;101503.81;;;32.49;97.02
58955;BME280;45815;52.334;5.024;2022-08-03T10:47:49;101496.63;;;32.48;99.80
58955;BME280;45815;52.334;5.024;2022-08-03T10:50:15;101488.88;;;32.85;98.13
58955;BME280;45815;52.334;5.024;2022-08-03T10:52:58;101492.31;;;33.30;98.59
58955;BME280;45815;52.334;5.024;2022-08-03T10:55:40;101489.31;;;33.48;94.17
58955;BME280;45815;52.334;5.024;2022-08-03T11:01:04;101493.63;;;33.92;90.12
58955;BME280;45815;52.334;5.024;2022-08-03T11:03:30;101486.00;;;33.97;88.39
58955;BME280;45815;52.334;5.024;2022-08-03T11:06:25;101483.63;;;34.05;86.49
58955;BME280;45815;52.334;5.024;2022-08-03T11:11:35;101473.50;;;34.58;84.88
58955;BME280;45815;52.334;5.024;2022-08-03T11:16:34;101476.06;;;34.98;80.35
58955;BME280;45815;52.334;5.024;2022-08-03T11:19:05;101480.00;;;34.94;78.38
58955;BME280;45815;52.334;5.024;2022-08-03T11:27:22;101469.81;;;35.22;75.92
58955;BME280;45815;52.334;5.024;2022-08-03T11:40:44;101467.19;;;36.15;65.89
58955;BME280;45815;52.334;5.024;2022-08-03T11:45:59;101461.72;;;36.15;68.16
58955;BME280;45815;52.334;5.024;2022-08-03T11:48:31;101473.31;;;36.30;65.49
58955;BME280;45815;52.334;5.024;2022-08-03T11:50:58;101470.44;;;36.43;61.07
58955;BME280;45815;52.334;5.024;2022-08-03T11:53:23;101472.75;;;36.60;59.61
58955;BME280;45815;52.334;5.024;2022-08-03T11:55:49;101469.22;;;36.47;61.03
58955;BME280;45815;52.334;5.024;2022-08-03T11:58:19;101461.66;;;36.62;60.75
58955;BME280;45815;52.334;5.024;2022-08-03T12:00:45;101459.78;;;36.85;65.84
58955;BME280;45815;52.334;5.024;2022-08-03T12:03:12;101469.59;;;37.10;62.25
58955;BME280;45815;52.334;5.024;2022-08-03T12:05:49;101455.00;;;37.21;57.30
58955;BME280;45815;52.334;5.024;2022-08-03T12:10:55;101465.75;;;37.56;57.83
58955;BME280;45815;52.334;5.024;2022-08-03T12:13:22;101460.56;;;37.63;58.27
58955;BME280;45815;52.334;5.024;2022-08-03T12:15:55;101468.75;;;37.74;52.16
58955;BME280;45815;52.334;5.024;2022-08-03T12:18:22;101464.13;;;37.53;51.09
58955;BME280;45815;52.334;5.024;2022-08-03T12:20:50;101452.91;;;37.45;55.95
58955;BME280;45815;52.334;5.024;2022-08-03T12:23:16;101455.78;;;37.11;52.41
58955;BME280;45815;52.334;5.024;2022-08-03T12:25:43;101456.75;;;37.22;53.13
58955;BME280;45815;52.334;5.024;2022-08-03T12:30:42;101446.69;;;37.54;52.39
58955;BME280;45815;52.334;5.024;2022-08-03T12:33:26;101456.91;;;37.73;49.82
58955;BME280;45815;52.334;5.024;2022-08-03T12:36:08;101448.81;;;37.72;47.58
58955;BME280;45815;52.334;5.024;2022-08-03T12:38:36;101450.63;;;37.83;50.06
58955;BME280;45815;52.334;5.024;2022-08-03T12:41:07;101447.16;;;37.80;45.92
58955;BME280;45815;52.334;5.024;2022-08-03T12:43:35;101442.94;;;37.97;45.87
58955;BME280;45815;52.334;5.024;2022-08-03T12:46:12;101448.41;;;37.97;46.32
58955;BME280;45815;52.334;5.024;2022-08-03T12:51:26;101438.00;;;38.33;50.51
58955;BME280;45815;52.334;5.024;2022-08-03T12:53:53;101438.16;;;38.41;50.44
58955;BME280;45815;52.334;5.024;2022-08-03T12:56:19;101438.81;;;38.55;51.41
58955;BME280;45815;52.334;5.024;2022-08-03T12:58:45;101442.38;;;38.46;48.07
58955;BME280;45815;52.334;5.024;2022-08-03T13:01:12;101455.63;;;38.40;51.28
58955;BME280;45815;52.334;5.024;2022-08-03T13:03:42;101437.09;;;38.33;46.45
58955;BME280;45815;52.334;5.024;2022-08-03T13:06:17;101450.59;;;38.15;45.89
58955;BME280;45815;52.334;5.024;2022-08-03T13:08:43;101447.41;;;38.10;47.37
58955;BME280;45815;52.334;5.024;2022-08-03T13:11:21;101442.13;;;37.65;44.20
58955;BME280;45815;52.334;5.024;2022-08-03T13:13:48;101436.81;;;37.63;46.84
58955;BME280;45815;52.334;5.024;2022-08-03T13:16:14;101442.44;;;37.50;45.25
58955;BME280;45815;52.334;5.024;2022-08-03T13:18:39;101435.47;;;37.46;46.42
58955;BME280;45815;52.334;5.024;2022-08-03T13:21:04;101438.41;;;37.33;49.00
58955;BME280;45815;52.334;5.024;2022-08-03T13:23:30;101437.88;;;37.07;47.90
58955;BME280;45815;52.334;5.024;2022-08-03T13:25:55;101428.16;;;36.92;48.16